Relevés horaires Bouveret (Suisse)


Relevés horaires à Bouveret - Dimanche 08 Avr. 2018
Heure UTC1 Température [°C] Vent [km/h] Hum. [%] Pres.4 [hPa] Visi. [Km] Nébu. [octa] Préc.5 [mm] Cond.
2m. Res. Ros. Dir.2 Vit. Moy. Raf.3
23:00 16.8 16.8 2.7 SSO 5.6 -- 61.1 39 1006(0.8/3h) -- -- -- --
22:00 18.6 18 -0.5 SSE 25.9 -- 63.0 27 1005.2 -- -- -- --
21:00 19.2 18.3 -1.3 SSE 40.7 -- 64.8 25 1004.9(0.8/3h) -- -- -- --
20:00 19.3 18.5 -1.2 SSE 35.2 -- 59.3 25 1004.8(0.4/3h) -- -- -- --
18:00 20.2 19.8 -0.9 SSE 31.5 -- 59.3 24 1003.9(-0.9/3h) -- -- -- --
17:00 15.9 15.9 4.9 NNO 7.4 -- 25.9 48 1004.9(-0.5/3h) -- -- -- --
16:00 16.1 16 4.6 NO 9.3 -- 20.4 46 1005.5(-0.1/3h) -- -- -- --
15:00 15.8 15.2 4.8 O 13.0 -- 29.6 48 1005.5(-0.1/3h) -- -- -- --
14:00 14.1 13.9 5.3 ONO 7.4 -- 14.8 55 1005.7(-0.5/3h) -- -- -- --
13:00 12.5 11.2 6.5 O 13.0 -- 29.6 67 1006.2(-1.0/3h) -- -- -- --
12:00 12.9 10.6 6.2 ONO 25.9 -- 61.1 64 1006.1(-0.7/3h) -- -- -- --
11:00 17.4 16.6 2.9 SSO 22.2 -- 51.9 38 1005.7(-0.8/3h) -- -- -- --
10:00 16.2 15.6 3.8 SO 14.8 -- 53.7 44 1006.6(-0.7/3h) -- -- -- --
09:00 19.0 18.3 2.6 SSE 31.5 -- 61.1 34 1005.8(-1.1/3h) -- -- -- --
08:00 17.9 16.8 2.7 SSE 31.5 -- 59.3 36 1006.4(-1.2/3h) -- -- -- --
07:00 16.8 15.2 2.1 SSE 37.0 -- 59.3 37 1007.2(-0.2/3h) -- -- -- --
06:00 16.2 14.7 1.8 SSE 29.6 -- 59.3 38 1007.4(-0.4/3h) -- -- -- --
05:00 16.0 14.8 2.0 S 22.2 -- 53.7 39 1008(-0.5/3h) -- -- -- --
04:00 16.0 14.4 1.8 SSE 29.6 -- 50.0 38 1007.6(-1.4/3h) -- -- -- --
03:00 16.4 14.9 1.8 SSE 29.6 -- 59.3 37 1007.8(-1.6/3h) -- -- -- --
02:00 16.8 15.5 1.6 SSE 27.8 -- 51.9 36 1008.4(-1.1/3h) -- -- -- --
01:00 17.0 15.9 1.7 SSE 25.9 -- 46.3 36 1008.9(-1.3/3h) -- -- -- --
00:00 16.2 15.1 2.8 SSE 22.2 -- 42.6 41 1009.5(-1.0/3h) -- -- -- --

1 Coordinated Universal Time. Actuellement il est 14:00 locale et 12:00 UTC.

2 Le vent souffle depuis la direction indiquée vers la direction oposée.

3 Les rafales max. sont disponible 40 min après l'heure du relevé.

4 Pour les stations d'altitude (plus de 600m) le géopotentiel du niveau le plus proche de la pression obligatoire est indiqué.

5 Les stations disposant d'un diffuseur peuvent indiquer "trace". Cela signifie que des précipitations ont touchés le sol mais que la quantité est inférieure à 0.1 mm.

Copyright

Les données affichées sur cette page sont la propriété exclusive de Météo Suisse.

Récapitulatif de la journée
Température [°C] Vent [km/h] Ensoleillement4 [h] Precipitations totale5 [mm] Pression [Hpa]
Min1 Max.2 Moy.3 Max. Min Max.
11.3 21.0 0 64.8 0 h 0 min 0 1003.9 1009.5

1 Température minimale relevée entre 18:00 UTC la veille et 18:00 UTC le jour donné.

2 Température maximale relevée entre 06:00 UTC le jour donné et 06:00 UTC le lendemain.

3 Vent moyen de la journée basé sur les relevés horaires.

4 Ensoleillement en heures relevé entre 06:00 UTC la veille et 06:00 UTC le jour donné.

5 Précipitations totales tombées entre 06:00 UTC la jour donné et 06:00 UTC le lendemain.

Graphiques horaires